< < Back
Terminal Aerodrome Forecast


Current Version              Previous Versions:   1  2  3  4  5  6  7  8  9  

Terminal Aerodrome Forecast

333
FTUS42 KGSP 241100
TAFAND
TAF
KAND 241120Z 2412/2512 06006KT P6SM FEW250
     FM241500 07010KT P6SM SKC
     FM241800 11006KT P6SM FEW250
     FM242000 16006KT P6SM BKN250
     FM250500 11005KT P6SM BKN060
     FM250700 12005KT P6SM BKN019=

Latest METAR

404
SAUS70 KWBC 241200 RRC
MTRAND
METAR KAND 241156Z AUTO 05006KT 10SM CLR 12/01 A3009 RMK AO2 SLP184
T01220011 10133 20106 53026


USA.gov is the U.S. government's official web portal to all federal, state and local government web resources and services.